Weather observations for the past three days for
Nassau International Airport
Imperial (Metric)
Date Time (edt) Wind (mph) Vis. (mi.) Weather Sky Cond. Temperature (ºF) Relative Humidity Wind Chill (°F) Heat Index (°F) Pressure Precipitation (in)
Air Dwpt 6 hour altimeter (in) sea level (mb) 1 hr 3 hr 6 hr
Max. Min.
06 08:00 N 3 0.00 Partly Cloudy FEW025 SCT220 78.8 73.4 84% 82 30.03 0.0
06 07:00 NW 5 0.00 Mostly Cloudy FEW025 BKN220 71.6 69.8 94% 30.02 0.0
06 06:00 Calm 0.00 Partly Cloudy FEW025 SCT220 71.6 71.6 100% 30.01 0.0
06 05:00 Calm 0.00 Partly Cloudy FEW025 SCT220 75.2 73.4 94% 74 29.99 0.0
06 04:00 Calm 0.00 Partly Cloudy FEW025 SCT220 75.2 73.4 94% 74 29.99 0.0
06 03:00 W 2 0.00 Partly Cloudy FEW025 SCT220 73.4 71.6 94% 29.99 0.0
06 02:00 W 3 0.00 Partly Cloudy FEW025 SCT220 75.2 73.4 94% 74 30 0.0
06 01:00 W 2 0.00 Partly Cloudy FEW025 SCT220 75.2 73.4 94% 74 30.01 0.0
06 00:00 SW 3 0.00 Partly Cloudy FEW025 SCT220 78.8 73.4 84% 82 30.01 0.0
05 23:00 S 2 0.00 Partly Cloudy FEW025 SCT220 78.8 73.4 84% 82 30 0.0
05 22:00 Vrbl 2 0.00 Partly Cloudy FEW025 SCT200 78.8 73.4 84% 82 30 0.0
05 21:00 S 5 0.00 Mostly Cloudy FEW020 BKN200 78.8 73.4 84% 82 29.98 0.0
05 20:00 SW 7 0.00 Mostly Cloudy FEW020 BKN220 78.8 73.4 84% 82 29.97 0.0
05 19:00 SW 9 0.00 Mostly Cloudy FEW020 BKN220 80.6 73.4 79% 85 29.97 0.0
05 18:00 S 9 0.00 Mostly Cloudy FEW016CB BKN220 80.6 73.4 79% 85 29.96 0.0
05 17:00 S 9 0.00 Mostly Cloudy FEW016CB SCT022 BKN220 82.4 73.4 74% 88 29.94 0.0
05 16:00 S 13 0.00 Mostly Cloudy FEW016CB SCT020 BKN220 84.2 73.4 70% 91 29.96 0.0
05 15:00 SW 9 0.00 Partly Cloudy FEW015 SCT020 SCT200 84.2 73.4 70% 91 29.97 0.0
05 14:00 SW 8 0.00 Mostly Cloudy SCT020 BKN200 86 75.2 70% 95 29.98 0.0
05 13:00 SW 8 0.00 Mostly Cloudy FEW020 BKN100 82.4 73.4 74% 88 30 0.0
05 12:00 S 7 0.00 Mostly Cloudy FEW015CB SCT030 BKN110 82.4 73.4 74% 88 30.01 0.0
05 11:00 S 6 0.00 Mostly Cloudy FEW015CB SCT040 BKN100 82.4 73.4 74% 88 30 0.0
05 10:00 S 9 0.00 Partly Cloudy FEW015CB SCT040 80.6 71.6 74% 85 29.99 0.0
05 09:00 S 9 0.00 Partly Cloudy FEW015CB SCT040 78.8 71.6 79% 82 29.98 0.0
05 08:00 SE 10 0.00 Partly Cloudy FEW018 SCT040 75.2 71.6 89% 75 29.96 0.0
05 07:00 SE 9 0.00 Mostly Cloudy SCT012CB SCT020 BKN240 71.6 69.8 94% 29.96 0.0
05 06:00 E 7 0.00 Light Rain SCT010CB SCT020 BKN240 73.4 71.6 94% 29.95 0.0
05 05:00 NW 6 0.00 Thunderstorm Rain FEW008 SCT010CB SCT020 BKN240 71.6 69.8 94% 29.93 0.0
05 04:00 S 10 0.00 Thunderstorm Rain FEW016CB SCT020 BKN240 78.8 75.2 89% 82 29.89 0.0
05 03:00 SE 12 0.00 Mostly Cloudy SCT020 BKN240 78.8 73.4 84% 82 29.9 0.0
05 02:00 SE 10 0.00 Mostly Cloudy SCT020 BKN240 78.8 73.4 84% 82 29.93 0.0
05 01:00 SE 9 0.00 Mostly Cloudy SCT020 BKN240 77 73.4 89% 78 29.95 0.0
05 00:00 SE 12 0.00 Mostly Cloudy SCT020 BKN240 78.8 71.6 79% 82 29.97 0.0
04 23:00 SE 12 0.00 Mostly Cloudy SCT020 BKN240 78.8 71.6 79% 82 29.97 0.0
04 22:00 SE 13 0.00 Mostly Cloudy SCT020 BKN240 78.8 73.4 84% 82 29.96 0.0
04 21:00 SE 10 0.00 Mostly Cloudy FEW020 SCT100 BKN240 78.8 71.6 79% 82 29.97 0.0
04 20:00 SE 10 0.00 A Few Clouds FEW020 78.8 71.6 79% 82 29.95 0.0
04 19:00 E 8 0.00 A Few Clouds FEW020 80.6 69.8 70% 84 29.94 0.0
04 18:00 E 12 0.00 Partly Cloudy SCT020 80.6 71.6 74% 85 29.93 0.0
04 17:00 E 10 0.00 Mostly Cloudy SCT018 BKN050 80.6 71.6 74% 85 29.93 0.0
04 16:00 E 12 0.00 Mostly Cloudy SCT016 BKN050 80.6 71.6 74% 85 29.94 0.0
04 15:00 E 12 0.00 Light Showers Rain FEW015CB SCT018 BKN035 77 71.6 83% 78 29.96 0.0
04 14:00 N 6 0.00 Mostly Cloudy FEW015 BKN035 80.6 73.4 79% 85 29.97 0.0
04 13:00 NW 8 0.00 Showers in Vicinity FEW016CB BKN040 82.4 73.4 74% 88 29.98 0.0
04 12:00 W 8 0.00 Thunderstorm in Vicinity FEW016CB BKN045 84.2 69.8 62% 88 29.99 0.0
04 11:00 W 8 0.00 Partly Cloudy FEW016CB SCT040 82.4 69.8 66% 86 29.99 0.0
04 10:00 W 8 0.00 Mostly Cloudy FEW018 SCT150 BKN210 78.8 73.4 84% 82 29.97 0.0
04 09:00 Vrbl 2 0.00 Showers in Vicinity FEW018 BKN140 BKN200 78.8 73.4 84% 82 29.96 0.0
04 08:00 W 7 0.00 Thunderstorm in Vicinity FEW015CB SCT018 BKN100 77 73.4 89% 78 29.95 0.0
04 07:00 SW 6 0.00 Thunderstorm in Vicinity FEW012CB SCT014 BKN090 77 75.2 94% 78 29.93 0.0
04 06:00 SW 5 0.00 Light Showers Rain Thunderstorm in Vicinity SCT015CB BKN100 77 75.2 94% 78 29.92 0.0
04 05:00 NW 5 0.00 Thunderstorm in Vicinity SCT015CB BKN100 77 77 100% 78 29.91 0.0
04 04:00 Vrbl 2 0.00 Mostly Cloudy FEW018 SCT045 BKN100 78.8 75.2 89% 82 29.92 0.0
04 03:00 NE 3 0.00 Light Showers Rain FEW018 BKN150 78.8 75.2 89% 82 29.93 0.0
04 02:00 N 3 0.00 Mostly Cloudy FEW018 BKN150 78.8 75.2 89% 82 29.95 0.0
04 01:00 SE 3 0.00 Mostly Cloudy FEW018 BKN150 78.8 75.2 89% 82 29.97 0.0
04 00:00 E 3 0.00 Mostly Cloudy FEW018 BKN150 78.8 75.2 89% 82 29.98 0.0
03 23:00 E 5 0.00 Mostly Cloudy FEW018 BKN150 80.6 75.2 84% 86 30 0.0
03 22:00 E 5 0.00 Mostly Cloudy FEW018 BKN150 80.6 75.2 84% 86 29.98 0.0
03 21:00 NE 5 0.00 Mostly Cloudy FEW018 BKN150 BKN240 78.8 75.2 89% 82 29.97 0.0
03 20:00 N 5 0.00 Mostly Cloudy FEW018 SCT150 BKN250 80.6 71.6 74% 85 29.97 0.0
03 19:00 NE 5 0.00 Mostly Cloudy FEW018 SCT180 BKN250 82.4 71.6 70% 87 29.94 0.0
03 18:00 NE 6 0.00 Mostly Cloudy FEW018 BKN250 82.4 71.6 70% 87 29.95 0.0
03 17:00 NE 8 0.00 Mostly Cloudy FEW015CB SCT090 BKN250 82.4 73.4 74% 88 29.95 0.0
03 16:00 N 8 0.00 Mostly Cloudy FEW012CB SCT016 BKN250 80.6 73.4 79% 85 29.96 0.0
03 15:00 N 9 0.00 Mostly Cloudy FEW012CB SCT016 BKN250 82.4 73.4 74% 88 29.97 0.0
03 14:00 S 5 G 21 0.00 Thunderstorm Showers in Vicinity FEW015CB SCT018 BKN080 82.4 71.6 70% 87 29.99 0.0
03 13:00 N 9 0.00 Showers in Vicinity SCT018 BKN100 BKN200 84.2 71.6 66% 90 30.01 0.0
03 12:02 NW 12 0.00 Showers in Vicinity SCT016 SCT120 BKN200 82.4 73.4 74% 88 30.02 0.0
03 12:00 W 7 0.00 Showers in Vicinity SCT016 SCT120 BKN200 86 73.4 66% 93 30.02 0.0
03 11:00 SW 8 0.00 Thunderstorm in Vicinity FEW015CB BKN120 BKN200 86 71.6 62% 92 30.01 0.0
03 10:00 SW 10 0.00 Mostly Cloudy FEW015CB SCT120 BKN200 84.2 75.2 74% 92 29.99 0.0
03 09:00 SW 10 0.00 Thunderstorm in Vicinity FEW012CB SCT120 BKN200 82.4 77 84% 91 29.99 0.0
Date Time (edt) Wind (mph) Vis. (mi.) Weather Sky Cond. Air Dwpt Max. Min. Relative Humidity Wind Chill (°F) Heat Index (°F) altimeter (in) sea level (mb) 1 hr 3 hr 6 hr
6 hour
Temperature (ºF) Pressure Precipitation (in)